sensor_id;sensor_type;location;lat;lon;timestamp;temperature;humidity
33741;DHT22;20065;48.380;10.892;2023-04-03T00:02:31;4.60;99.90
33741;DHT22;20065;48.380;10.892;2023-04-03T00:05:17;4.60;99.90
33741;DHT22;20065;48.380;10.892;2023-04-03T00:08:03;4.60;99.90
33741;DHT22;20065;48.380;10.892;2023-04-03T00:10:53;4.70;99.90
33741;DHT22;20065;48.380;10.892;2023-04-03T00:13:39;4.70;99.90
33741;DHT22;20065;48.380;10.892;2023-04-03T00:16:26;4.60;99.90
33741;DHT22;20065;48.380;10.892;2023-04-03T00:19:12;4.70;99.90
33741;DHT22;20065;48.380;10.892;2023-04-03T00:21:58;4.70;99.90
33741;DHT22;20065;48.380;10.892;2023-04-03T00:24:44;4.70;99.90
33741;DHT22;20065;48.380;10.892;2023-04-03T00:27:30;4.70;99.90
33741;DHT22;20065;48.380;10.892;2023-04-03T00:30:19;4.60;99.90
33741;DHT22;20065;48.380;10.892;2023-04-03T00:33:05;4.60;99.90
33741;DHT22;20065;48.380;10.892;2023-04-03T00:35:52;4.70;99.90
33741;DHT22;20065;48.380;10.892;2023-04-03T00:38:38;4.50;99.90
33741;DHT22;20065;48.380;10.892;2023-04-03T00:41:24;4.50;99.90
33741;DHT22;20065;48.380;10.892;2023-04-03T00:47:18;4.50;99.90
33741;DHT22;20065;48.380;10.892;2023-04-03T00:50:06;4.50;99.90
33741;DHT22;20065;48.380;10.892;2023-04-03T00:52:52;4.50;99.90
33741;DHT22;20065;48.380;10.892;2023-04-03T00:55:39;4.50;99.90
33741;DHT22;20065;48.380;10.892;2023-04-03T00:58:37;4.50;99.90
33741;DHT22;20065;48.380;10.892;2023-04-03T01:01:26;4.50;99.90
33741;DHT22;20065;48.380;10.892;2023-04-03T01:07:22;4.50;99.90
33741;DHT22;20065;48.380;10.892;2023-04-03T01:10:11;4.50;99.90
33741;DHT22;20065;48.380;10.892;2023-04-03T01:13:00;4.50;99.90
33741;DHT22;20065;48.380;10.892;2023-04-03T01:15:47;4.60;99.90
33741;DHT22;20065;48.380;10.892;2023-04-03T01:18:35;4.60;99.90
33741;DHT22;20065;48.380;10.892;2023-04-03T01:21:40;4.50;99.90
33741;DHT22;20065;48.380;10.892;2023-04-03T01:24:38;4.50;99.90
33741;DHT22;20065;48.380;10.892;2023-04-03T01:27:27;4.50;99.90
33741;DHT22;20065;48.380;10.892;2023-04-03T01:30:17;4.60;99.90
33741;DHT22;20065;48.380;10.892;2023-04-03T01:33:03;4.50;99.90
33741;DHT22;20065;48.380;10.892;2023-04-03T01:35:50;4.40;99.90
33741;DHT22;20065;48.380;10.892;2023-04-03T01:38:36;4.40;99.90
33741;DHT22;20065;48.380;10.892;2023-04-03T01:41:25;4.40;99.90
33741;DHT22;20065;48.380;10.892;2023-04-03T01:44:15;4.50;99.90
33741;DHT22;20065;48.380;10.892;2023-04-03T01:47:02;4.50;99.90
33741;DHT22;20065;48.380;10.892;2023-04-03T01:49:50;4.50;99.90
33741;DHT22;20065;48.380;10.892;2023-04-03T01:52:37;4.50;99.90
33741;DHT22;20065;48.380;10.892;2023-04-03T01:55:23;4.50;99.90
33741;DHT22;20065;48.380;10.892;2023-04-03T01:58:09;4.40;99.90
33741;DHT22;20065;48.380;10.892;2023-04-03T02:00:55;4.30;99.90
33741;DHT22;20065;48.380;10.892;2023-04-03T02:03:41;4.40;99.90
33741;DHT22;20065;48.380;10.892;2023-04-03T02:06:31;4.40;99.90
33741;DHT22;20065;48.380;10.892;2023-04-03T02:09:17;4.40;99.90
33741;DHT22;20065;48.380;10.892;2023-04-03T02:12:03;4.40;99.90
33741;DHT22;20065;48.380;10.892;2023-04-03T02:14:50;4.40;99.90
33741;DHT22;20065;48.380;10.892;2023-04-03T02:17:36;4.40;99.90
33741;DHT22;20065;48.380;10.892;2023-04-03T02:20:22;4.40;99.90
33741;DHT22;20065;48.380;10.892;2023-04-03T02:23:09;4.30;99.90
33741;DHT22;20065;48.380;10.892;2023-04-03T02:26:10;4.30;99.90
33741;DHT22;20065;48.380;10.892;2023-04-03T02:28:57;4.30;99.90
33741;DHT22;20065;48.380;10.892;2023-04-03T02:31:46;4.30;99.90
33741;DHT22;20065;48.380;10.892;2023-04-03T02:34:32;4.40;99.90
33741;DHT22;20065;48.380;10.892;2023-04-03T02:37:20;4.40;99.90
33741;DHT22;20065;48.380;10.892;2023-04-03T02:40:07;4.40;99.90
33741;DHT22;20065;48.380;10.892;2023-04-03T02:42:54;4.40;99.90
33741;DHT22;20065;48.380;10.892;2023-04-03T02:45:43;4.40;99.90
33741;DHT22;20065;48.380;10.892;2023-04-03T02:48:29;4.50;99.90
33741;DHT22;20065;48.380;10.892;2023-04-03T02:51:15;4.50;99.90
33741;DHT22;20065;48.380;10.892;2023-04-03T02:54:01;4.40;99.90
33741;DHT22;20065;48.380;10.892;2023-04-03T02:56:51;4.40;99.90
33741;DHT22;20065;48.380;10.892;2023-04-03T02:59:37;4.40;99.90
33741;DHT22;20065;48.380;10.892;2023-04-03T03:02:26;4.30;99.90
33741;DHT22;20065;48.380;10.892;2023-04-03T03:05:13;4.30;99.90
33741;DHT22;20065;48.380;10.892;2023-04-03T03:07:59;4.30;99.90
33741;DHT22;20065;48.380;10.892;2023-04-03T03:10:45;4.40;99.90
33741;DHT22;20065;48.380;10.892;2023-04-03T03:13:31;4.40;99.90
33741;DHT22;20065;48.380;10.892;2023-04-03T03:16:17;4.50;99.90
33741;DHT22;20065;48.380;10.892;2023-04-03T03:19:03;4.40;99.90
33741;DHT22;20065;48.380;10.892;2023-04-03T03:21:50;4.40;99.90
33741;DHT22;20065;48.380;10.892;2023-04-03T03:24:36;4.40;99.90
33741;DHT22;20065;48.380;10.892;2023-04-03T03:27:23;4.40;99.90
33741;DHT22;20065;48.380;10.892;2023-04-03T03:30:10;4.40;99.90
33741;DHT22;20065;48.380;10.892;2023-04-03T03:32:56;4.40;99.90
33741;DHT22;20065;48.380;10.892;2023-04-03T03:35:42;4.30;99.90
33741;DHT22;20065;48.380;10.892;2023-04-03T03:38:29;4.30;99.90
33741;DHT22;20065;48.380;10.892;2023-04-03T03:41:15;4.30;99.90
33741;DHT22;20065;48.380;10.892;2023-04-03T03:44:03;4.30;99.90
33741;DHT22;20065;48.380;10.892;2023-04-03T03:46:51;4.40;99.90
33741;DHT22;20065;48.380;10.892;2023-04-03T03:49:37;4.40;99.90
33741;DHT22;20065;48.380;10.892;2023-04-03T03:52:23;4.30;99.90
33741;DHT22;20065;48.380;10.892;2023-04-03T03:55:10;4.30;99.90
33741;DHT22;20065;48.380;10.892;2023-04-03T03:57:56;4.30;99.90
33741;DHT22;20065;48.380;10.892;2023-04-03T04:00:43;4.30;99.90
33741;DHT22;20065;48.380;10.892;2023-04-03T04:03:30;4.20;99.90
33741;DHT22;20065;48.380;10.892;2023-04-03T04:06:16;4.10;99.90
33741;DHT22;20065;48.380;10.892;2023-04-03T04:09:03;4.20;99.90
33741;DHT22;20065;48.380;10.892;2023-04-03T04:11:50;4.20;99.90
33741;DHT22;20065;48.380;10.892;2023-04-03T04:14:37;4.10;99.90
33741;DHT22;20065;48.380;10.892;2023-04-03T04:17:24;4.10;99.90
33741;DHT22;20065;48.380;10.892;2023-04-03T04:20:11;4.10;99.90
33741;DHT22;20065;48.380;10.892;2023-04-03T04:22:58;4.10;99.90
33741;DHT22;20065;48.380;10.892;2023-04-03T04:25:46;4.10;99.90
33741;DHT22;20065;48.380;10.892;2023-04-03T04:28:33;4.00;99.90
33741;DHT22;20065;48.380;10.892;2023-04-03T04:31:21;4.10;99.90
33741;DHT22;20065;48.380;10.892;2023-04-03T04:34:08;4.20;99.90
33741;DHT22;20065;48.380;10.892;2023-04-03T04:36:56;4.30;99.90
33741;DHT22;20065;48.380;10.892;2023-04-03T04:39:42;4.20;99.90
33741;DHT22;20065;48.380;10.892;2023-04-03T04:42:28;4.20;99.90
33741;DHT22;20065;48.380;10.892;2023-04-03T04:45:15;4.20;99.90
33741;DHT22;20065;48.380;10.892;2023-04-03T04:48:03;4.20;99.90
33741;DHT22;20065;48.380;10.892;2023-04-03T04:50:49;4.10;99.90
33741;DHT22;20065;48.380;10.892;2023-04-03T04:53:35;4.20;99.90
33741;DHT22;20065;48.380;10.892;2023-04-03T04:56:22;4.20;99.90
33741;DHT22;20065;48.380;10.892;2023-04-03T04:59:08;4.20;99.90
33741;DHT22;20065;48.380;10.892;2023-04-03T05:01:54;4.10;99.90
33741;DHT22;20065;48.380;10.892;2023-04-03T05:04:41;4.10;99.90
33741;DHT22;20065;48.380;10.892;2023-04-03T05:07:33;4.20;99.90
33741;DHT22;20065;48.380;10.892;2023-04-03T05:10:20;4.20;99.90
33741;DHT22;20065;48.380;10.892;2023-04-03T05:13:06;4.30;99.90
33741;DHT22;20065;48.380;10.892;2023-04-03T05:15:52;4.30;99.90
33741;DHT22;20065;48.380;10.892;2023-04-03T05:18:39;4.20;99.90
33741;DHT22;20065;48.380;10.892;2023-04-03T05:21:29;4.10;99.90
33741;DHT22;20065;48.380;10.892;2023-04-03T05:24:19;4.00;99.90
33741;DHT22;20065;48.380;10.892;2023-04-03T05:27:05;4.10;99.90
33741;DHT22;20065;48.380;10.892;2023-04-03T05:29:54;4.10;99.90
33741;DHT22;20065;48.380;10.892;2023-04-03T05:32:42;4.20;99.90
33741;DHT22;20065;48.380;10.892;2023-04-03T05:35:37;4.20;99.90
33741;DHT22;20065;48.380;10.892;2023-04-03T05:38:27;4.20;99.90
33741;DHT22;20065;48.380;10.892;2023-04-03T05:41:15;4.10;99.90
33741;DHT22;20065;48.380;10.892;2023-04-03T05:44:04;4.10;99.90
33741;DHT22;20065;48.380;10.892;2023-04-03T05:46:50;4.10;99.90
33741;DHT22;20065;48.380;10.892;2023-04-03T05:49:36;4.10;99.90
33741;DHT22;20065;48.380;10.892;2023-04-03T05:52:30;4.10;99.90
33741;DHT22;20065;48.380;10.892;2023-04-03T05:55:17;4.10;99.90
33741;DHT22;20065;48.380;10.892;2023-04-03T05:58:04;4.10;99.90
33741;DHT22;20065;48.380;10.892;2023-04-03T06:00:50;4.20;99.90
33741;DHT22;20065;48.380;10.892;2023-04-03T06:03:36;4.20;99.90
33741;DHT22;20065;48.380;10.892;2023-04-03T06:06:22;4.20;99.90
33741;DHT22;20065;48.380;10.892;2023-04-03T06:09:14;4.20;99.90
33741;DHT22;20065;48.380;10.892;2023-04-03T06:12:01;4.30;99.90
33741;DHT22;20065;48.380;10.892;2023-04-03T06:14:48;4.30;99.90
33741;DHT22;20065;48.380;10.892;2023-04-03T06:17:34;4.30;99.90
33741;DHT22;20065;48.380;10.892;2023-04-03T06:20:21;4.30;99.90
33741;DHT22;20065;48.380;10.892;2023-04-03T06:23:08;4.30;99.90
33741;DHT22;20065;48.380;10.892;2023-04-03T06:25:54;4.50;99.90
33741;DHT22;20065;48.380;10.892;2023-04-03T06:28:40;4.50;99.90
33741;DHT22;20065;48.380;10.892;2023-04-03T06:31:26;4.40;99.90
33741;DHT22;20065;48.380;10.892;2023-04-03T06:34:13;4.40;99.90
33741;DHT22;20065;48.380;10.892;2023-04-03T06:36:59;4.40;99.90
33741;DHT22;20065;48.380;10.892;2023-04-03T06:39:46;4.50;99.90
33741;DHT22;20065;48.380;10.892;2023-04-03T06:42:32;4.60;99.90
33741;DHT22;20065;48.380;10.892;2023-04-03T06:45:26;4.60;99.90
33741;DHT22;20065;48.380;10.892;2023-04-03T06:48:12;4.70;99.90
33741;DHT22;20065;48.380;10.892;2023-04-03T06:50:58;4.70;99.90
33741;DHT22;20065;48.380;10.892;2023-04-03T06:53:45;4.80;99.90
33741;DHT22;20065;48.380;10.892;2023-04-03T06:56:32;4.80;99.90
33741;DHT22;20065;48.380;10.892;2023-04-03T06:59:18;4.80;99.90
33741;DHT22;20065;48.380;10.892;2023-04-03T07:02:06;4.90;99.90
33741;DHT22;20065;48.380;10.892;2023-04-03T07:04:52;5.00;99.90
33741;DHT22;20065;48.380;10.892;2023-04-03T07:07:38;5.00;99.90
33741;DHT22;20065;48.380;10.892;2023-04-03T07:10:24;5.20;99.90
33741;DHT22;20065;48.380;10.892;2023-04-03T07:13:10;5.20;99.90
33741;DHT22;20065;48.380;10.892;2023-04-03T07:15:57;5.20;99.90
33741;DHT22;20065;48.380;10.892;2023-04-03T07:18:43;5.30;99.90
33741;DHT22;20065;48.380;10.892;2023-04-03T07:21:30;5.40;99.90
33741;DHT22;20065;48.380;10.892;2023-04-03T07:24:16;5.40;99.90
33741;DHT22;20065;48.380;10.892;2023-04-03T07:27:02;5.50;99.90
33741;DHT22;20065;48.380;10.892;2023-04-03T07:29:48;5.60;99.90
33741;DHT22;20065;48.380;10.892;2023-04-03T07:32:35;5.60;99.90
33741;DHT22;20065;48.380;10.892;2023-04-03T07:35:22;5.60;99.90
33741;DHT22;20065;48.380;10.892;2023-04-03T07:38:09;5.40;99.90
33741;DHT22;20065;48.380;10.892;2023-04-03T07:40:55;5.30;99.90
33741;DHT22;20065;48.380;10.892;2023-04-03T07:43:41;5.20;99.90
33741;DHT22;20065;48.380;10.892;2023-04-03T07:46:28;5.20;99.90
33741;DHT22;20065;48.380;10.892;2023-04-03T07:49:14;5.30;99.90
33741;DHT22;20065;48.380;10.892;2023-04-03T07:52:01;5.30;99.90
33741;DHT22;20065;48.380;10.892;2023-04-03T07:54:49;5.40;99.90
33741;DHT22;20065;48.380;10.892;2023-04-03T07:57:35;5.60;99.90
33741;DHT22;20065;48.380;10.892;2023-04-03T08:00:22;5.80;99.90
33741;DHT22;20065;48.380;10.892;2023-04-03T08:03:10;5.90;99.90
33741;DHT22;20065;48.380;10.892;2023-04-03T08:06:02;5.90;99.90
33741;DHT22;20065;48.380;10.892;2023-04-03T08:08:49;5.90;99.90
33741;DHT22;20065;48.380;10.892;2023-04-03T08:11:38;5.90;99.90
33741;DHT22;20065;48.380;10.892;2023-04-03T08:14:24;5.80;99.90
33741;DHT22;20065;48.380;10.892;2023-04-03T08:17:11;5.70;99.90
33741;DHT22;20065;48.380;10.892;2023-04-03T08:19:57;5.80;99.90
33741;DHT22;20065;48.380;10.892;2023-04-03T08:22:47;5.90;99.90
33741;DHT22;20065;48.380;10.892;2023-04-03T08:25:37;6.00;99.90
33741;DHT22;20065;48.380;10.892;2023-04-03T08:28:24;6.20;99.90
33741;DHT22;20065;48.380;10.892;2023-04-03T08:31:14;6.20;99.90
33741;DHT22;20065;48.380;10.892;2023-04-03T08:34:00;6.20;99.90
33741;DHT22;20065;48.380;10.892;2023-04-03T08:36:47;6.30;99.90
33741;DHT22;20065;48.380;10.892;2023-04-03T08:39:35;6.20;99.90
33741;DHT22;20065;48.380;10.892;2023-04-03T08:45:52;6.50;99.90
33741;DHT22;20065;48.380;10.892;2023-04-03T08:48:41;6.40;99.90
33741;DHT22;20065;48.380;10.892;2023-04-03T08:51:28;6.30;99.90
33741;DHT22;20065;48.380;10.892;2023-04-03T08:54:29;6.40;99.90
33741;DHT22;20065;48.380;10.892;2023-04-03T08:57:41;6.50;99.90
33741;DHT22;20065;48.380;10.892;2023-04-03T09:00:43;6.40;99.90
33741;DHT22;20065;48.380;10.892;2023-04-03T09:03:34;6.40;99.90
33741;DHT22;20065;48.380;10.892;2023-04-03T09:06:25;6.40;99.90
33741;DHT22;20065;48.380;10.892;2023-04-03T09:12:27;6.00;99.90
33741;DHT22;20065;48.380;10.892;2023-04-03T09:15:22;6.20;99.90
33741;DHT22;20065;48.380;10.892;2023-04-03T09:18:20;6.40;99.90
33741;DHT22;20065;48.380;10.892;2023-04-03T09:21:24;6.70;99.90
33741;DHT22;20065;48.380;10.892;2023-04-03T09:24:14;6.70;99.90
33741;DHT22;20065;48.380;10.892;2023-04-03T09:27:04;6.60;99.90
33741;DHT22;20065;48.380;10.892;2023-04-03T09:29:54;6.40;99.90
33741;DHT22;20065;48.380;10.892;2023-04-03T09:32:41;6.40;99.90
33741;DHT22;20065;48.380;10.892;2023-04-03T09:35:33;6.50;99.90
33741;DHT22;20065;48.380;10.892;2023-04-03T09:38:21;6.50;99.90
33741;DHT22;20065;48.380;10.892;2023-04-03T09:41:21;6.30;99.90
33741;DHT22;20065;48.380;10.892;2023-04-03T09:44:21;6.30;99.90
33741;DHT22;20065;48.380;10.892;2023-04-03T09:47:24;6.50;99.90
33741;DHT22;20065;48.380;10.892;2023-04-03T09:53:06;7.20;99.90
33741;DHT22;20065;48.380;10.892;2023-04-03T09:55:53;7.10;99.90
33741;DHT22;20065;48.380;10.892;2023-04-03T09:58:40;7.10;99.90
33741;DHT22;20065;48.380;10.892;2023-04-03T10:04:19;7.10;99.90
33741;DHT22;20065;48.380;10.892;2023-04-03T10:07:30;7.00;99.90
33741;DHT22;20065;48.380;10.892;2023-04-03T10:10:21;7.00;99.90
33741;DHT22;20065;48.380;10.892;2023-04-03T10:13:16;7.00;99.90
33741;DHT22;20065;48.380;10.892;2023-04-03T10:16:11;7.00;99.90
33741;DHT22;20065;48.380;10.892;2023-04-03T10:22:27;6.70;99.90
33741;DHT22;20065;48.380;10.892;2023-04-03T10:31:19;6.50;99.90
33741;DHT22;20065;48.380;10.892;2023-04-03T10:34:09;6.40;99.90
33741;DHT22;20065;48.380;10.892;2023-04-03T10:43:25;6.60;99.90
33741;DHT22;20065;48.380;10.892;2023-04-03T10:46:16;6.50;99.90
33741;DHT22;20065;48.380;10.892;2023-04-03T10:58:52;6.40;99.90
33741;DHT22;20065;48.380;10.892;2023-04-03T11:01:48;6.40;99.90
33741;DHT22;20065;48.380;10.892;2023-04-03T11:04:40;6.20;99.90
33741;DHT22;20065;48.380;10.892;2023-04-03T11:07:29;6.20;99.90
33741;DHT22;20065;48.380;10.892;2023-04-03T11:10:25;6.20;99.90
33741;DHT22;20065;48.380;10.892;2023-04-03T11:13:34;6.20;99.90
33741;DHT22;20065;48.380;10.892;2023-04-03T11:16:26;6.10;99.90
33741;DHT22;20065;48.380;10.892;2023-04-03T11:19:31;6.00;99.90
33741;DHT22;20065;48.380;10.892;2023-04-03T11:22:31;6.00;99.90
33741;DHT22;20065;48.380;10.892;2023-04-03T11:25:21;6.00;99.90
33741;DHT22;20065;48.380;10.892;2023-04-03T11:28:13;5.90;99.90
33741;DHT22;20065;48.380;10.892;2023-04-03T11:31:42;5.80;99.90
33741;DHT22;20065;48.380;10.892;2023-04-03T11:34:55;5.80;99.90
33741;DHT22;20065;48.380;10.892;2023-04-03T11:37:50;6.10;99.90
33741;DHT22;20065;48.380;10.892;2023-04-03T11:40:37;6.30;99.90
33741;DHT22;20065;48.380;10.892;2023-04-03T11:43:27;6.50;99.90
33741;DHT22;20065;48.380;10.892;2023-04-03T11:46:14;6.70;99.90
33741;DHT22;20065;48.380;10.892;2023-04-03T11:49:02;6.80;99.90
33741;DHT22;20065;48.380;10.892;2023-04-03T11:51:48;6.90;99.90
33741;DHT22;20065;48.380;10.892;2023-04-03T11:54:45;6.90;99.90
33741;DHT22;20065;48.380;10.892;2023-04-03T12:15:48;7.20;99.90
33741;DHT22;20065;48.380;10.892;2023-04-03T12:24:37;7.60;99.90
33741;DHT22;20065;48.380;10.892;2023-04-03T12:27:28;7.90;99.90
33741;DHT22;20065;48.380;10.892;2023-04-03T12:30:25;8.10;99.90
33741;DHT22;20065;48.380;10.892;2023-04-03T12:36:57;8.30;99.90
33741;DHT22;20065;48.380;10.892;2023-04-03T12:39:51;8.60;99.90
33741;DHT22;20065;48.380;10.892;2023-04-03T12:42:54;9.10;99.90
33741;DHT22;20065;48.380;10.892;2023-04-03T12:46:01;9.70;99.90
33741;DHT22;20065;48.380;10.892;2023-04-03T12:51:38;11.10;99.00
33741;DHT22;20065;48.380;10.892;2023-04-03T12:54:37;11.70;97.10
33741;DHT22;20065;48.380;10.892;2023-04-03T12:57:28;12.60;96.40
33741;DHT22;20065;48.380;10.892;2023-04-03T13:00:31;12.60;94.20
33741;DHT22;20065;48.380;10.892;2023-04-03T13:03:24;12.30;93.60
33741;DHT22;20065;48.380;10.892;2023-04-03T13:06:50;11.50;94.40
33741;DHT22;20065;48.380;10.892;2023-04-03T13:10:03;12.00;95.10
33741;DHT22;20065;48.380;10.892;2023-04-03T13:12:55;12.70;93.10
33741;DHT22;20065;48.380;10.892;2023-04-03T13:15:44;13.60;92.20
33741;DHT22;20065;48.380;10.892;2023-04-03T13:18:34;12.10;91.30
33741;DHT22;20065;48.380;10.892;2023-04-03T13:21:32;10.80;93.50
33741;DHT22;20065;48.380;10.892;2023-04-03T13:24:19;9.70;95.60
33741;DHT22;20065;48.380;10.892;2023-04-03T13:27:06;8.80;95.90
33741;DHT22;20065;48.380;10.892;2023-04-03T13:29:54;8.20;97.50
33741;DHT22;20065;48.380;10.892;2023-04-03T13:32:43;8.00;98.40
33741;DHT22;20065;48.380;10.892;2023-04-03T13:35:40;8.00;99.40
33741;DHT22;20065;48.380;10.892;2023-04-03T13:38:30;8.00;95.90
33741;DHT22;20065;48.380;10.892;2023-04-03T13:41:32;7.90;95.70
33741;DHT22;20065;48.380;10.892;2023-04-03T13:50:04;8.30;97.40
33741;DHT22;20065;48.380;10.892;2023-04-03T13:53:11;8.60;97.50
33741;DHT22;20065;48.380;10.892;2023-04-03T14:02:26;9.00;96.10
33741;DHT22;20065;48.380;10.892;2023-04-03T14:05:14;9.10;94.40
33741;DHT22;20065;48.380;10.892;2023-04-03T14:08:02;9.60;96.00
33741;DHT22;20065;48.380;10.892;2023-04-03T14:10:49;11.60;92.60
33741;DHT22;20065;48.380;10.892;2023-04-03T14:13:36;13.40;90.70
33741;DHT22;20065;48.380;10.892;2023-04-03T14:16:26;13.40;88.20
33741;DHT22;20065;48.380;10.892;2023-04-03T14:19:21;12.50;90.00
33741;DHT22;20065;48.380;10.892;2023-04-03T14:22:18;11.50;90.40
33741;DHT22;20065;48.380;10.892;2023-04-03T14:25:05;10.80;90.50
33741;DHT22;20065;48.380;10.892;2023-04-03T14:27:52;10.10;90.60
33741;DHT22;20065;48.380;10.892;2023-04-03T14:30:42;9.50;90.30
33741;DHT22;20065;48.380;10.892;2023-04-03T14:33:29;9.20;91.40
33741;DHT22;20065;48.380;10.892;2023-04-03T14:36:23;9.20;92.40
33741;DHT22;20065;48.380;10.892;2023-04-03T14:39:17;9.40;91.50
33741;DHT22;20065;48.380;10.892;2023-04-03T14:42:04;9.30;92.90
33741;DHT22;20065;48.380;10.892;2023-04-03T14:44:50;9.30;90.40
33741;DHT22;20065;48.380;10.892;2023-04-03T14:47:45;9.30;91.20
33741;DHT22;20065;48.380;10.892;2023-04-03T14:50:32;9.40;91.90
33741;DHT22;20065;48.380;10.892;2023-04-03T14:53:19;9.40;91.20
33741;DHT22;20065;48.380;10.892;2023-04-03T14:56:14;9.10;92.30
33741;DHT22;20065;48.380;10.892;2023-04-03T14:59:02;8.90;91.00
33741;DHT22;20065;48.380;10.892;2023-04-03T15:01:49;8.50;92.60
33741;DHT22;20065;48.380;10.892;2023-04-03T15:04:36;8.30;92.40
33741;DHT22;20065;48.380;10.892;2023-04-03T15:07:26;8.30;92.10
33741;DHT22;20065;48.380;10.892;2023-04-03T15:10:26;8.40;90.90
33741;DHT22;20065;48.380;10.892;2023-04-03T15:13:13;8.40;90.70
33741;DHT22;20065;48.380;10.892;2023-04-03T15:15:59;8.20;90.20
33741;DHT22;20065;48.380;10.892;2023-04-03T15:18:47;8.20;90.40
33741;DHT22;20065;48.380;10.892;2023-04-03T15:21:33;8.20;91.30
33741;DHT22;20065;48.380;10.892;2023-04-03T15:24:19;8.30;92.20
33741;DHT22;20065;48.380;10.892;2023-04-03T15:27:05;8.30;92.30
33741;DHT22;20065;48.380;10.892;2023-04-03T15:29:52;8.50;91.70
33741;DHT22;20065;48.380;10.892;2023-04-03T15:32:41;8.50;91.20
33741;DHT22;20065;48.380;10.892;2023-04-03T15:35:27;8.40;89.40
33741;DHT22;20065;48.380;10.892;2023-04-03T15:38:16;8.40;90.10
33741;DHT22;20065;48.380;10.892;2023-04-03T15:41:02;8.40;91.20
33741;DHT22;20065;48.380;10.892;2023-04-03T15:43:50;8.50;91.00
33741;DHT22;20065;48.380;10.892;2023-04-03T15:46:36;8.60;89.70
33741;DHT22;20065;48.380;10.892;2023-04-03T15:49:23;8.10;90.00
33741;DHT22;20065;48.380;10.892;2023-04-03T15:52:09;7.90;90.70
33741;DHT22;20065;48.380;10.892;2023-04-03T15:54:55;8.00;90.80
33741;DHT22;20065;48.380;10.892;2023-04-03T15:57:41;8.70;89.40
33741;DHT22;20065;48.380;10.892;2023-04-03T16:00:28;9.20;90.00
33741;DHT22;20065;48.380;10.892;2023-04-03T16:03:21;8.90;90.30
33741;DHT22;20065;48.380;10.892;2023-04-03T16:06:17;8.30;90.40
33741;DHT22;20065;48.380;10.892;2023-04-03T16:09:04;7.80;91.10
33741;DHT22;20065;48.380;10.892;2023-04-03T16:11:51;7.60;91.30
33741;DHT22;20065;48.380;10.892;2023-04-03T16:14:37;7.30;92.10
33741;DHT22;20065;48.380;10.892;2023-04-03T16:17:23;7.20;92.00
33741;DHT22;20065;48.380;10.892;2023-04-03T16:20:10;7.10;91.50
33741;DHT22;20065;48.380;10.892;2023-04-03T16:22:59;7.10;90.90
33741;DHT22;20065;48.380;10.892;2023-04-03T16:25:45;7.10;91.30
33741;DHT22;20065;48.380;10.892;2023-04-03T16:28:32;7.30;90.90
33741;DHT22;20065;48.380;10.892;2023-04-03T16:31:19;7.40;90.20
33741;DHT22;20065;48.380;10.892;2023-04-03T16:34:06;7.40;91.90
33741;DHT22;20065;48.380;10.892;2023-04-03T16:36:52;7.50;91.60
33741;DHT22;20065;48.380;10.892;2023-04-03T16:39:38;7.30;90.00
33741;DHT22;20065;48.380;10.892;2023-04-03T16:42:25;7.30;90.90
33741;DHT22;20065;48.380;10.892;2023-04-03T16:45:11;7.10;90.60
33741;DHT22;20065;48.380;10.892;2023-04-03T16:47:58;6.80;90.80
33741;DHT22;20065;48.380;10.892;2023-04-03T16:50:47;6.70;91.20
33741;DHT22;20065;48.380;10.892;2023-04-03T16:53:39;6.50;91.70
33741;DHT22;20065;48.380;10.892;2023-04-03T16:56:26;6.30;91.70
33741;DHT22;20065;48.380;10.892;2023-04-03T16:59:13;6.20;92.60
33741;DHT22;20065;48.380;10.892;2023-04-03T17:01:59;6.30;92.80
33741;DHT22;20065;48.380;10.892;2023-04-03T17:04:45;6.20;91.60
33741;DHT22;20065;48.380;10.892;2023-04-03T17:07:32;6.20;92.80
33741;DHT22;20065;48.380;10.892;2023-04-03T17:10:18;6.20;92.30
33741;DHT22;20065;48.380;10.892;2023-04-03T17:13:05;6.10;92.00
33741;DHT22;20065;48.380;10.892;2023-04-03T17:15:51;6.00;92.70
33741;DHT22;20065;48.380;10.892;2023-04-03T17:18:37;5.90;93.00
33741;DHT22;20065;48.380;10.892;2023-04-03T17:21:27;5.90;93.40
33741;DHT22;20065;48.380;10.892;2023-04-03T17:24:13;5.80;93.30
33741;DHT22;20065;48.380;10.892;2023-04-03T17:27:00;5.80;94.40
33741;DHT22;20065;48.380;10.892;2023-04-03T17:29:46;5.80;93.70
33741;DHT22;20065;48.380;10.892;2023-04-03T17:32:32;5.80;93.50
33741;DHT22;20065;48.380;10.892;2023-04-03T17:35:19;5.90;94.00
33741;DHT22;20065;48.380;10.892;2023-04-03T17:38:05;5.90;93.50
33741;DHT22;20065;48.380;10.892;2023-04-03T17:41:02;5.80;93.40
33741;DHT22;20065;48.380;10.892;2023-04-03T17:43:49;5.70;93.90
33741;DHT22;20065;48.380;10.892;2023-04-03T17:46:36;5.60;94.50
33741;DHT22;20065;48.380;10.892;2023-04-03T17:49:22;5.50;94.60
33741;DHT22;20065;48.380;10.892;2023-04-03T17:52:09;5.50;94.50
33741;DHT22;20065;48.380;10.892;2023-04-03T17:54:55;5.40;95.10
33741;DHT22;20065;48.380;10.892;2023-04-03T17:57:41;5.30;95.60
33741;DHT22;20065;48.380;10.892;2023-04-03T18:00:27;5.30;95.60
33741;DHT22;20065;48.380;10.892;2023-04-03T18:03:13;5.30;96.10
33741;DHT22;20065;48.380;10.892;2023-04-03T18:06:02;5.20;95.70
33741;DHT22;20065;48.380;10.892;2023-04-03T18:08:52;5.20;95.30
33741;DHT22;20065;48.380;10.892;2023-04-03T18:11:39;5.10;95.60
33741;DHT22;20065;48.380;10.892;2023-04-03T18:14:27;5.00;95.90
33741;DHT22;20065;48.380;10.892;2023-04-03T18:17:13;5.00;96.00
33741;DHT22;20065;48.380;10.892;2023-04-03T18:20:00;4.90;96.30
33741;DHT22;20065;48.380;10.892;2023-04-03T18:22:46;4.90;97.00
33741;DHT22;20065;48.380;10.892;2023-04-03T18:25:32;4.80;97.10
33741;DHT22;20065;48.380;10.892;2023-04-03T18:28:19;4.80;96.90
33741;DHT22;20065;48.380;10.892;2023-04-03T18:31:07;4.70;97.30
33741;DHT22;20065;48.380;10.892;2023-04-03T18:33:55;4.60;97.10
33741;DHT22;20065;48.380;10.892;2023-04-03T18:36:43;4.50;96.80
33741;DHT22;20065;48.380;10.892;2023-04-03T18:39:31;4.50;97.10
33741;DHT22;20065;48.380;10.892;2023-04-03T18:42:20;4.50;97.30
33741;DHT22;20065;48.380;10.892;2023-04-03T18:45:10;4.50;97.30
33741;DHT22;20065;48.380;10.892;2023-04-03T18:47:57;4.40;97.40
33741;DHT22;20065;48.380;10.892;2023-04-03T18:50:43;4.40;97.60
33741;DHT22;20065;48.380;10.892;2023-04-03T18:53:30;4.40;97.70
33741;DHT22;20065;48.380;10.892;2023-04-03T18:56:19;4.40;97.90
33741;DHT22;20065;48.380;10.892;2023-04-03T18:59:07;4.30;98.30
33741;DHT22;20065;48.380;10.892;2023-04-03T19:01:54;4.20;97.70
33741;DHT22;20065;48.380;10.892;2023-04-03T19:04:40;4.10;98.00
33741;DHT22;20065;48.380;10.892;2023-04-03T19:07:27;4.10;98.20
33741;DHT22;20065;48.380;10.892;2023-04-03T19:10:15;4.10;98.00
33741;DHT22;20065;48.380;10.892;2023-04-03T19:13:04;4.00;98.60
33741;DHT22;20065;48.380;10.892;2023-04-03T19:15:54;3.90;98.40